sensor_id;sensor_type;location;lat;lon;timestamp;P1;durP1;ratioP1;P2;durP2;ratioP2
1719;SDS011;857;52.872;9.692;2023-06-22T13:54:39;8.70;;;8.00;;
1719;SDS011;857;52.872;9.692;2023-06-22T13:57:07;8.10;;;7.40;;
1719;SDS011;857;52.872;9.692;2023-06-22T13:59:35;8.03;;;7.27;;
1719;SDS011;857;52.872;9.692;2023-06-22T14:02:02;8.53;;;7.83;;
1719;SDS011;857;52.872;9.692;2023-06-22T14:04:30;10.17;;;8.50;;
1719;SDS011;857;52.872;9.692;2023-06-22T14:06:58;8.30;;;7.60;;
1719;SDS011;857;52.872;9.692;2023-06-22T14:09:26;8.83;;;7.93;;
1719;SDS011;857;52.872;9.692;2023-06-22T14:11:55;8.27;;;7.43;;
1719;SDS011;857;52.872;9.692;2023-06-22T14:14:22;7.00;;;6.40;;
1719;SDS011;857;52.872;9.692;2023-06-22T14:16:50;8.23;;;7.47;;
1719;SDS011;857;52.872;9.692;2023-06-22T14:19:18;8.93;;;8.03;;
1719;SDS011;857;52.872;9.692;2023-06-22T14:21:45;9.20;;;8.23;;
1719;SDS011;857;52.872;9.692;2023-06-22T14:24:13;8.43;;;7.73;;
1719;SDS011;857;52.872;9.692;2023-06-22T14:26:41;9.37;;;8.47;;
1719;SDS011;857;52.872;9.692;2023-06-22T14:29:10;8.60;;;7.90;;
1719;SDS011;857;52.872;9.692;2023-06-22T14:31:37;7.67;;;7.07;;
1719;SDS011;857;52.872;9.692;2023-06-22T14:34:05;8.70;;;7.90;;
1719;SDS011;857;52.872;9.692;2023-06-22T14:36:33;8.13;;;7.43;;
1719;SDS011;857;52.872;9.692;2023-06-22T14:39:00;8.63;;;7.87;;
1719;SDS011;857;52.872;9.692;2023-06-22T14:41:28;10.80;;;8.10;;
1719;SDS011;857;52.872;9.692;2023-06-22T14:43:56;8.70;;;7.90;;
1719;SDS011;857;52.872;9.692;2023-06-22T14:46:27;7.80;;;7.10;;
1719;SDS011;857;52.872;9.692;2023-06-22T14:48:54;7.93;;;7.23;;
1719;SDS011;857;52.872;9.692;2023-06-22T14:51:22;9.00;;;8.20;;
1719;SDS011;857;52.872;9.692;2023-06-22T14:53:50;9.77;;;8.50;;
1719;SDS011;857;52.872;9.692;2023-06-22T14:56:17;9.80;;;8.90;;
1719;SDS011;857;52.872;9.692;2023-06-22T14:58:45;9.57;;;8.67;;
1719;SDS011;857;52.872;9.692;2023-06-22T15:01:13;10.90;;;8.93;;
1719;SDS011;857;52.872;9.692;2023-06-22T15:03:42;9.77;;;8.83;;
1719;SDS011;857;52.872;9.692;2023-06-22T15:06:09;10.70;;;9.50;;
1719;SDS011;857;52.872;9.692;2023-06-22T15:08:37;10.33;;;9.37;;
1719;SDS011;857;52.872;9.692;2023-06-22T15:11:05;12.87;;;9.70;;
1719;SDS011;857;52.872;9.692;2023-06-22T15:13:33;10.47;;;9.43;;
1719;SDS011;857;52.872;9.692;2023-06-22T15:16:01;11.80;;;10.60;;
1719;SDS011;857;52.872;9.692;2023-06-22T15:18:29;12.43;;;10.73;;
1719;SDS011;857;52.872;9.692;2023-06-22T15:21:00;13.40;;;11.70;;
1719;SDS011;857;52.872;9.692;2023-06-22T15:23:28;13.10;;;11.70;;
1719;SDS011;857;52.872;9.692;2023-06-22T15:25:56;13.20;;;11.80;;
1719;SDS011;857;52.872;9.692;2023-06-22T15:28:24;13.13;;;11.83;;
1719;SDS011;857;52.872;9.692;2023-06-22T15:30:51;12.50;;;11.30;;
1719;SDS011;857;52.872;9.692;2023-06-22T15:33:19;14.17;;;12.10;;
1719;SDS011;857;52.872;9.692;2023-06-22T15:35:47;13.93;;;12.43;;
1719;SDS011;857;52.872;9.692;2023-06-22T15:38:16;14.43;;;13.00;;
1719;SDS011;857;52.872;9.692;2023-06-22T15:40:44;13.63;;;12.17;;
1719;SDS011;857;52.872;9.692;2023-06-22T15:43:11;14.30;;;12.70;;
1719;SDS011;857;52.872;9.692;2023-06-22T15:45:39;14.20;;;12.80;;
1719;SDS011;857;52.872;9.692;2023-06-22T15:48:07;14.30;;;12.67;;
1719;SDS011;857;52.872;9.692;2023-06-22T15:50:35;15.80;;;13.77;;
1719;SDS011;857;52.872;9.692;2023-06-22T15:53:02;13.80;;;12.40;;
1719;SDS011;857;52.872;9.692;2023-06-22T15:55:31;14.27;;;12.77;;
1719;SDS011;857;52.872;9.692;2023-06-22T15:58:00;14.07;;;12.60;;
1719;SDS011;857;52.872;9.692;2023-06-22T16:00:28;21.70;;;14.53;;
1719;SDS011;857;52.872;9.692;2023-06-22T16:02:56;18.77;;;16.10;;
1719;SDS011;857;52.872;9.692;2023-06-22T16:05:23;18.60;;;15.43;;
1719;SDS011;857;52.872;9.692;2023-06-22T16:07:51;20.10;;;15.37;;
1719;SDS011;857;52.872;9.692;2023-06-22T16:10:18;14.80;;;13.17;;
1719;SDS011;857;52.872;9.692;2023-06-22T16:12:47;14.37;;;12.90;;
1719;SDS011;857;52.872;9.692;2023-06-22T16:15:15;15.23;;;13.10;;
1719;SDS011;857;52.872;9.692;2023-06-22T16:17:43;15.17;;;13.40;;
1719;SDS011;857;52.872;9.692;2023-06-22T16:20:11;14.90;;;12.93;;
1719;SDS011;857;52.872;9.692;2023-06-22T16:22:42;14.30;;;12.83;;
1719;SDS011;857;52.872;9.692;2023-06-22T16:25:11;15.00;;;13.50;;
1719;SDS011;857;52.872;9.692;2023-06-22T16:27:39;15.53;;;13.50;;
1719;SDS011;857;52.872;9.692;2023-06-22T16:30:08;13.53;;;12.10;;
1719;SDS011;857;52.872;9.692;2023-06-22T16:32:36;14.83;;;13.33;;
1719;SDS011;857;52.872;9.692;2023-06-22T16:35:04;13.53;;;11.13;;
1719;SDS011;857;52.872;9.692;2023-06-22T16:37:31;12.70;;;11.40;;
1719;SDS011;857;52.872;9.692;2023-06-22T16:39:59;12.17;;;10.70;;
1719;SDS011;857;52.872;9.692;2023-06-22T16:42:27;13.33;;;11.60;;
1719;SDS011;857;52.872;9.692;2023-06-22T16:44:55;11.80;;;10.60;;
1719;SDS011;857;52.872;9.692;2023-06-22T16:47:24;13.20;;;11.90;;
1719;SDS011;857;52.872;9.692;2023-06-22T16:49:53;11.40;;;10.30;;
1719;SDS011;857;52.872;9.692;2023-06-22T16:52:20;13.20;;;11.90;;
1719;SDS011;857;52.872;9.692;2023-06-22T16:54:48;12.57;;;11.47;;
1719;SDS011;857;52.872;9.692;2023-06-22T16:57:16;13.47;;;12.17;;
1719;SDS011;857;52.872;9.692;2023-06-22T16:59:44;13.38;;;12.07;;
1719;SDS011;857;52.872;9.692;2023-06-22T17:02:13;13.07;;;11.80;;
1719;SDS011;857;52.872;9.692;2023-06-22T17:04:44;13.67;;;12.23;;
1719;SDS011;857;52.872;9.692;2023-06-22T17:07:14;14.07;;;12.57;;
1719;SDS011;857;52.872;9.692;2023-06-22T17:09:42;13.00;;;11.70;;
1719;SDS011;857;52.872;9.692;2023-06-22T17:12:10;12.63;;;11.37;;
1719;SDS011;857;52.872;9.692;2023-06-22T17:14:38;12.47;;;11.27;;
1719;SDS011;857;52.872;9.692;2023-06-22T17:17:09;12.97;;;11.57;;
1719;SDS011;857;52.872;9.692;2023-06-22T17:19:38;12.47;;;11.27;;
1719;SDS011;857;52.872;9.692;2023-06-22T17:22:07;12.83;;;11.50;;
1719;SDS011;857;52.872;9.692;2023-06-22T17:24:34;10.37;;;9.37;;
1719;SDS011;857;52.872;9.692;2023-06-22T17:27:03;10.63;;;9.53;;
1719;SDS011;857;52.872;9.692;2023-06-22T17:29:31;13.03;;;11.77;;
1719;SDS011;857;52.872;9.692;2023-06-22T17:32:00;14.17;;;11.67;;
1719;SDS011;857;52.872;9.692;2023-06-22T17:34:29;13.10;;;10.17;;
1719;SDS011;857;52.872;9.692;2023-06-22T17:36:57;12.40;;;10.40;;
1719;SDS011;857;52.872;9.692;2023-06-22T17:39:27;11.37;;;10.17;;
1719;SDS011;857;52.872;9.692;2023-06-22T17:41:55;11.63;;;10.53;;
1719;SDS011;857;52.872;9.692;2023-06-22T17:44:23;13.48;;;12.18;;
1719;SDS011;857;52.872;9.692;2023-06-22T17:46:51;13.23;;;11.83;;
1719;SDS011;857;52.872;9.692;2023-06-22T17:49:19;12.73;;;11.20;;
1719;SDS011;857;52.872;9.692;2023-06-22T17:51:49;13.17;;;11.80;;
1719;SDS011;857;52.872;9.692;2023-06-22T17:54:17;13.40;;;12.10;;
1719;SDS011;857;52.872;9.692;2023-06-22T17:56:48;11.90;;;10.70;;
1719;SDS011;857;52.872;9.692;2023-06-22T17:59:17;13.33;;;11.93;;
1719;SDS011;857;52.872;9.692;2023-06-22T18:01:45;13.00;;;11.70;;
1719;SDS011;857;52.872;9.692;2023-06-22T18:04:13;12.53;;;11.10;;
1719;SDS011;857;52.872;9.692;2023-06-22T18:06:41;11.90;;;10.70;;
1719;SDS011;857;52.872;9.692;2023-06-22T18:09:09;10.93;;;9.93;;
1719;SDS011;857;52.872;9.692;2023-06-22T18:11:40;13.70;;;11.60;;
1719;SDS011;857;52.872;9.692;2023-06-22T18:14:13;12.93;;;11.47;;
1719;SDS011;857;52.872;9.692;2023-06-22T18:16:42;45.93;;;18.10;;
1719;SDS011;857;52.872;9.692;2023-06-22T18:19:10;14.03;;;10.37;;
1719;SDS011;857;52.872;9.692;2023-06-22T18:21:40;24.23;;;14.07;;
1719;SDS011;857;52.872;9.692;2023-06-22T18:24:08;23.23;;;12.57;;
1719;SDS011;857;52.872;9.692;2023-06-22T18:26:35;23.03;;;11.77;;
1719;SDS011;857;52.872;9.692;2023-06-22T18:29:04;12.23;;;10.93;;
1719;SDS011;857;52.872;9.692;2023-06-22T18:31:34;15.27;;;11.73;;
1719;SDS011;857;52.872;9.692;2023-06-22T18:34:02;17.17;;;10.50;;
1719;SDS011;857;52.872;9.692;2023-06-22T18:36:31;12.40;;;11.13;;
1719;SDS011;857;52.872;9.692;2023-06-22T18:39:02;11.73;;;10.70;;
1719;SDS011;857;52.872;9.692;2023-06-22T18:41:34;19.70;;;11.93;;
1719;SDS011;857;52.872;9.692;2023-06-22T18:44:02;13.80;;;12.40;;
1719;SDS011;857;52.872;9.692;2023-06-22T18:46:30;13.80;;;12.50;;
1719;SDS011;857;52.872;9.692;2023-06-22T18:49:00;15.23;;;13.73;;
1719;SDS011;857;52.872;9.692;2023-06-22T18:51:28;15.37;;;13.90;;
1719;SDS011;857;52.872;9.692;2023-06-22T18:54:03;15.13;;;13.63;;
1719;SDS011;857;52.872;9.692;2023-06-22T18:56:31;14.90;;;13.40;;
1719;SDS011;857;52.872;9.692;2023-06-22T18:58:58;16.40;;;14.83;;
1719;SDS011;857;52.872;9.692;2023-06-22T19:01:26;14.87;;;13.47;;
1719;SDS011;857;52.872;9.692;2023-06-22T19:03:58;15.60;;;14.00;;
1719;SDS011;857;52.872;9.692;2023-06-22T19:09:15;17.00;;;15.27;;
1719;SDS011;857;52.872;9.692;2023-06-22T19:11:44;16.80;;;15.10;;
1719;SDS011;857;52.872;9.692;2023-06-22T19:14:17;16.90;;;15.10;;
1719;SDS011;857;52.872;9.692;2023-06-22T19:16:46;17.83;;;15.93;;
1719;SDS011;857;52.872;9.692;2023-06-22T19:19:15;18.97;;;16.97;;
1719;SDS011;857;52.872;9.692;2023-06-22T19:21:43;18.83;;;13.10;;
1719;SDS011;857;52.872;9.692;2023-06-22T19:24:29;18.70;;;16.00;;
1719;SDS011;857;52.872;9.692;2023-06-22T19:26:57;18.13;;;16.30;;
1719;SDS011;857;52.872;9.692;2023-06-22T19:29:25;19.33;;;17.17;;
1719;SDS011;857;52.872;9.692;2023-06-22T19:31:53;19.10;;;17.10;;
1719;SDS011;857;52.872;9.692;2023-06-22T19:34:22;19.53;;;17.57;;
1719;SDS011;857;52.872;9.692;2023-06-22T19:36:50;18.83;;;16.90;;
1719;SDS011;857;52.872;9.692;2023-06-22T19:39:18;20.00;;;17.97;;
1719;SDS011;857;52.872;9.692;2023-06-22T19:41:47;19.70;;;17.60;;
1719;SDS011;857;52.872;9.692;2023-06-22T19:44:15;20.13;;;18.13;;
1719;SDS011;857;52.872;9.692;2023-06-22T19:46:42;19.53;;;17.10;;
1719;SDS011;857;52.872;9.692;2023-06-22T19:49:11;22.17;;;18.90;;
1719;SDS011;857;52.872;9.692;2023-06-22T19:54:13;19.80;;;17.90;;
1719;SDS011;857;52.872;9.692;2023-06-22T19:56:41;19.60;;;17.50;;
1719;SDS011;857;52.872;9.692;2023-06-22T19:59:10;18.40;;;16.60;;
1719;SDS011;857;52.872;9.692;2023-06-22T20:01:39;18.73;;;16.67;;
1719;SDS011;857;52.872;9.692;2023-06-22T20:04:07;18.67;;;16.77;;
1719;SDS011;857;52.872;9.692;2023-06-22T20:06:34;18.90;;;16.90;;
1719;SDS011;857;52.872;9.692;2023-06-22T20:09:04;15.17;;;13.57;;
1719;SDS011;857;52.872;9.692;2023-06-22T20:11:33;17.40;;;15.60;;
1719;SDS011;857;52.872;9.692;2023-06-22T20:14:00;17.20;;;15.53;;
1719;SDS011;857;52.872;9.692;2023-06-22T20:16:30;18.70;;;16.77;;
1719;SDS011;857;52.872;9.692;2023-06-22T20:19:05;17.73;;;15.90;;
1719;SDS011;857;52.872;9.692;2023-06-22T20:21:32;17.70;;;15.70;;
1719;SDS011;857;52.872;9.692;2023-06-22T20:24:04;15.60;;;14.10;;
1719;SDS011;857;52.872;9.692;2023-06-22T20:26:36;15.77;;;14.13;;
1719;SDS011;857;52.872;9.692;2023-06-22T20:31:48;16.40;;;13.97;;
1719;SDS011;857;52.872;9.692;2023-06-22T20:34:19;13.47;;;12.17;;
1719;SDS011;857;52.872;9.692;2023-06-22T20:36:47;13.83;;;12.43;;
1719;SDS011;857;52.872;9.692;2023-06-22T20:39:15;11.90;;;10.53;;
1719;SDS011;857;52.872;9.692;2023-06-22T20:41:43;14.43;;;11.83;;
1719;SDS011;857;52.872;9.692;2023-06-22T20:44:10;13.53;;;12.23;;
1719;SDS011;857;52.872;9.692;2023-06-22T20:46:38;12.10;;;10.90;;
1719;SDS011;857;52.872;9.692;2023-06-22T20:49:07;12.60;;;11.40;;
1719;SDS011;857;52.872;9.692;2023-06-22T20:51:35;13.20;;;11.30;;
1719;SDS011;857;52.872;9.692;2023-06-22T20:54:02;12.20;;;11.00;;
1719;SDS011;857;52.872;9.692;2023-06-22T20:56:31;11.90;;;10.47;;
1719;SDS011;857;52.872;9.692;2023-06-22T20:58:59;11.77;;;10.57;;
1719;SDS011;857;52.872;9.692;2023-06-22T21:01:27;11.10;;;10.00;;
1719;SDS011;857;52.872;9.692;2023-06-22T21:03:58;10.97;;;9.87;;
1719;SDS011;857;52.872;9.692;2023-06-22T21:06:27;10.90;;;9.63;;
1719;SDS011;857;52.872;9.692;2023-06-22T21:08:55;10.53;;;8.80;;
1719;SDS011;857;52.872;9.692;2023-06-22T21:11:22;9.97;;;8.97;;
1719;SDS011;857;52.872;9.692;2023-06-22T21:13:50;12.27;;;9.13;;
1719;SDS011;857;52.872;9.692;2023-06-22T21:16:18;12.07;;;8.70;;
1719;SDS011;857;52.872;9.692;2023-06-22T21:18:45;10.13;;;9.13;;
1719;SDS011;857;52.872;9.692;2023-06-22T21:21:13;10.60;;;9.00;;
1719;SDS011;857;52.872;9.692;2023-06-22T21:23:42;9.07;;;8.23;;
1719;SDS011;857;52.872;9.692;2023-06-22T21:26:10;8.47;;;7.67;;
1719;SDS011;857;52.872;9.692;2023-06-22T21:28:37;10.00;;;8.33;;
1719;SDS011;857;52.872;9.692;2023-06-22T21:31:05;9.93;;;8.93;;
1719;SDS011;857;52.872;9.692;2023-06-22T21:33:32;9.23;;;8.33;;
1719;SDS011;857;52.872;9.692;2023-06-22T21:36:00;9.27;;;8.37;;
1719;SDS011;857;52.872;9.692;2023-06-22T21:38:28;9.03;;;8.13;;
1719;SDS011;857;52.872;9.692;2023-06-22T21:40:57;8.63;;;7.77;;
1719;SDS011;857;52.872;9.692;2023-06-22T21:43:25;8.63;;;7.80;;
1719;SDS011;857;52.872;9.692;2023-06-22T21:45:52;7.93;;;7.13;;
1719;SDS011;857;52.872;9.692;2023-06-22T21:48:20;9.47;;;7.73;;
1719;SDS011;857;52.872;9.692;2023-06-22T21:50:48;9.27;;;8.07;;
1719;SDS011;857;52.872;9.692;2023-06-22T21:53:15;9.07;;;7.53;;
1719;SDS011;857;52.872;9.692;2023-06-22T21:55:43;8.00;;;7.20;;
1719;SDS011;857;52.872;9.692;2023-06-22T21:58:12;8.23;;;7.43;;
1719;SDS011;857;52.872;9.692;2023-06-22T22:00:40;8.30;;;7.50;;
1719;SDS011;857;52.872;9.692;2023-06-22T22:03:08;8.20;;;7.13;;
1719;SDS011;857;52.872;9.692;2023-06-22T22:05:36;8.40;;;7.57;;
1719;SDS011;857;52.872;9.692;2023-06-22T22:08:03;8.23;;;7.43;;
1719;SDS011;857;52.872;9.692;2023-06-22T22:10:31;9.40;;;7.30;;
1719;SDS011;857;52.872;9.692;2023-06-22T22:13:01;7.93;;;6.87;;
1719;SDS011;857;52.872;9.692;2023-06-22T22:15:30;6.73;;;6.13;;
1719;SDS011;857;52.872;9.692;2023-06-22T22:17:58;7.83;;;7.00;;
1719;SDS011;857;52.872;9.692;2023-06-22T22:20:29;9.43;;;7.17;;
1719;SDS011;857;52.872;9.692;2023-06-22T22:22:57;7.47;;;6.30;;
1719;SDS011;857;52.872;9.692;2023-06-22T22:25:25;7.70;;;6.90;;
1719;SDS011;857;52.872;9.692;2023-06-22T22:27:53;7.50;;;6.80;;
1719;SDS011;857;52.872;9.692;2023-06-22T22:30:20;6.50;;;5.83;;
1719;SDS011;857;52.872;9.692;2023-06-22T22:32:49;6.10;;;5.50;;
1719;SDS011;857;52.872;9.692;2023-06-22T22:35:17;8.20;;;7.07;;
1719;SDS011;857;52.872;9.692;2023-06-22T22:37:45;6.30;;;5.73;;
1719;SDS011;857;52.872;9.692;2023-06-22T22:40:13;7.40;;;6.70;;
1719;SDS011;857;52.872;9.692;2023-06-22T22:42:40;7.33;;;6.40;;
1719;SDS011;857;52.872;9.692;2023-06-22T22:45:09;8.17;;;7.47;;
1719;SDS011;857;52.872;9.692;2023-06-22T22:47:37;7.50;;;6.47;;
1719;SDS011;857;52.872;9.692;2023-06-22T22:50:06;9.20;;;7.80;;
1719;SDS011;857;52.872;9.692;2023-06-22T22:52:34;6.63;;;5.80;;
1719;SDS011;857;52.872;9.692;2023-06-22T22:55:03;7.00;;;6.30;;
1719;SDS011;857;52.872;9.692;2023-06-22T22:57:32;7.40;;;5.77;;
1719;SDS011;857;52.872;9.692;2023-06-22T23:00:00;7.60;;;6.90;;
1719;SDS011;857;52.872;9.692;2023-06-22T23:02:29;8.03;;;7.23;;
1719;SDS011;857;52.872;9.692;2023-06-22T23:04:56;7.20;;;6.50;;
1719;SDS011;857;52.872;9.692;2023-06-22T23:07:26;7.10;;;6.40;;
1719;SDS011;857;52.872;9.692;2023-06-22T23:09:54;7.80;;;7.00;;
1719;SDS011;857;52.872;9.692;2023-06-22T23:12:21;7.27;;;6.57;;
1719;SDS011;857;52.872;9.692;2023-06-22T23:14:49;7.97;;;7.17;;
1719;SDS011;857;52.872;9.692;2023-06-22T23:17:17;5.87;;;5.37;;
1719;SDS011;857;52.872;9.692;2023-06-22T23:19:45;9.47;;;6.70;;
1719;SDS011;857;52.872;9.692;2023-06-22T23:22:12;7.00;;;6.40;;
1719;SDS011;857;52.872;9.692;2023-06-22T23:24:42;8.60;;;6.80;;
1719;SDS011;857;52.872;9.692;2023-06-22T23:27:09;6.10;;;5.50;;
1719;SDS011;857;52.872;9.692;2023-06-22T23:29:38;6.47;;;5.87;;
1719;SDS011;857;52.872;9.692;2023-06-22T23:32:07;6.47;;;5.83;;
1719;SDS011;857;52.872;9.692;2023-06-22T23:34:35;6.80;;;6.00;;
1719;SDS011;857;52.872;9.692;2023-06-22T23:37:02;6.73;;;6.13;;
1719;SDS011;857;52.872;9.692;2023-06-22T23:39:30;7.77;;;7.00;;
1719;SDS011;857;52.872;9.692;2023-06-22T23:42:00;5.60;;;5.00;;
1719;SDS011;857;52.872;9.692;2023-06-22T23:44:28;8.20;;;6.93;;
1719;SDS011;857;52.872;9.692;2023-06-22T23:46:55;6.23;;;5.33;;
1719;SDS011;857;52.872;9.692;2023-06-22T23:49:23;5.93;;;5.43;;
1719;SDS011;857;52.872;9.692;2023-06-22T23:51:51;6.30;;;5.70;;
1719;SDS011;857;52.872;9.692;2023-06-22T23:54:19;6.93;;;6.23;;
1719;SDS011;857;52.872;9.692;2023-06-22T23:56:49;8.83;;;6.93;;
1719;SDS011;857;52.872;9.692;2023-06-22T23:59:18;7.77;;;6.47;;
